EDDT

Berlin-Tegel International Airport

Berlin, Germany
METAR EDDT 182150Z 30004KT 270V340 CAVOK 21/14 Q1015
Observed Flight Rules
Jul-18 @ 21:50 UTC (27 minutes ago) Visual Flight Rules
Wind Visibility Clouds
300° at 4 knots 10,000+ meters
  • Clear skies
Temperatures Readings
Current 21°C / 70°F
Dewpoint 14°C / 57°F
Humidity 64%
Altimeter 29.97" Hg
Pressure 1015 hPa
Elevation 37
METAR EDDT 182150Z 30004KT 270V340 CAVOK 21/14 Q1015
Observed Flight Rules
Jul-18 @ 21:50 UTC
(27 minutes ago)
VFR
Wind Visibility
300° at 4 knots 10,000+ meters
Clouds
  • Clear skies
Temperature Dewpoint
21°C / 70°F 14°C / 57°F
Humidity Altimeter Pressure
64% 29.97" Hg 1015 hPa